sensor_id;sensor_type;location;lat;lon;timestamp;P1;durP1;ratioP1;P2;durP2;ratioP2
53961;SDS011;39868;53.398;6.564;2022-11-15T00:01:55;18.38;;;8.88;;
53961;SDS011;39868;53.398;6.564;2022-11-15T00:04:41;19.95;;;10.38;;
53961;SDS011;39868;53.398;6.564;2022-11-15T00:07:27;19.70;;;9.90;;
53961;SDS011;39868;53.398;6.564;2022-11-15T00:10:33;19.65;;;10.00;;
53961;SDS011;39868;53.398;6.564;2022-11-15T00:13:19;20.25;;;9.65;;
53961;SDS011;39868;53.398;6.564;2022-11-15T00:16:05;18.35;;;9.68;;
53961;SDS011;39868;53.398;6.564;2022-11-15T00:18:51;17.00;;;8.80;;
53961;SDS011;39868;53.398;6.564;2022-11-15T00:21:38;16.83;;;7.97;;
53961;SDS011;39868;53.398;6.564;2022-11-15T00:24:24;17.05;;;9.13;;
53961;SDS011;39868;53.398;6.564;2022-11-15T00:27:10;16.17;;;8.77;;
53961;SDS011;39868;53.398;6.564;2022-11-15T00:29:56;13.65;;;8.30;;
53961;SDS011;39868;53.398;6.564;2022-11-15T00:32:42;17.05;;;8.35;;
53961;SDS011;39868;53.398;6.564;2022-11-15T00:35:28;16.05;;;8.82;;
53961;SDS011;39868;53.398;6.564;2022-11-15T00:38:16;15.40;;;7.97;;
53961;SDS011;39868;53.398;6.564;2022-11-15T00:41:03;16.33;;;7.88;;
53961;SDS011;39868;53.398;6.564;2022-11-15T00:43:54;14.43;;;7.97;;
53961;SDS011;39868;53.398;6.564;2022-11-15T00:46:40;14.05;;;8.10;;
53961;SDS011;39868;53.398;6.564;2022-11-15T00:49:26;13.25;;;7.72;;
53961;SDS011;39868;53.398;6.564;2022-11-15T00:52:12;15.07;;;7.75;;
53961;SDS011;39868;53.398;6.564;2022-11-15T00:54:58;15.80;;;9.13;;
53961;SDS011;39868;53.398;6.564;2022-11-15T00:57:44;16.08;;;8.20;;
53961;SDS011;39868;53.398;6.564;2022-11-15T01:00:31;13.40;;;7.45;;
53961;SDS011;39868;53.398;6.564;2022-11-15T01:03:18;14.05;;;7.82;;
53961;SDS011;39868;53.398;6.564;2022-11-15T01:06:04;15.80;;;8.15;;
53961;SDS011;39868;53.398;6.564;2022-11-15T01:08:50;15.27;;;7.35;;
53961;SDS011;39868;53.398;6.564;2022-11-15T01:11:37;14.00;;;8.35;;
53961;SDS011;39868;53.398;6.564;2022-11-15T01:14:23;11.48;;;7.15;;
53961;SDS011;39868;53.398;6.564;2022-11-15T01:17:09;13.98;;;7.15;;
53961;SDS011;39868;53.398;6.564;2022-11-15T01:19:56;15.18;;;8.52;;
53961;SDS011;39868;53.398;6.564;2022-11-15T01:22:41;13.52;;;7.40;;
53961;SDS011;39868;53.398;6.564;2022-11-15T01:25:28;13.70;;;7.13;;
53961;SDS011;39868;53.398;6.564;2022-11-15T01:28:14;15.43;;;8.40;;
53961;SDS011;39868;53.398;6.564;2022-11-15T01:31:04;15.20;;;8.05;;
53961;SDS011;39868;53.398;6.564;2022-11-15T01:33:52;14.80;;;8.20;;
53961;SDS011;39868;53.398;6.564;2022-11-15T01:36:38;17.10;;;7.95;;
53961;SDS011;39868;53.398;6.564;2022-11-15T01:39:24;16.23;;;8.20;;
53961;SDS011;39868;53.398;6.564;2022-11-15T01:42:13;14.57;;;7.68;;
53961;SDS011;39868;53.398;6.564;2022-11-15T01:44:59;15.60;;;8.52;;
53961;SDS011;39868;53.398;6.564;2022-11-15T01:47:47;18.70;;;8.45;;
53961;SDS011;39868;53.398;6.564;2022-11-15T01:50:37;13.52;;;7.80;;
53961;SDS011;39868;53.398;6.564;2022-11-15T01:53:23;13.13;;;7.05;;
53961;SDS011;39868;53.398;6.564;2022-11-15T01:56:12;13.63;;;7.97;;
53961;SDS011;39868;53.398;6.564;2022-11-15T01:59:01;14.23;;;7.75;;
53961;SDS011;39868;53.398;6.564;2022-11-15T02:01:49;15.07;;;8.48;;
53961;SDS011;39868;53.398;6.564;2022-11-15T02:04:37;14.40;;;7.70;;
53961;SDS011;39868;53.398;6.564;2022-11-15T02:07:27;14.48;;;7.53;;
53961;SDS011;39868;53.398;6.564;2022-11-15T02:10:20;17.98;;;9.00;;
53961;SDS011;39868;53.398;6.564;2022-11-15T02:13:08;14.45;;;7.97;;
53961;SDS011;39868;53.398;6.564;2022-11-15T02:25:18;15.25;;;7.60;;
53961;SDS011;39868;53.398;6.564;2022-11-15T02:31:28;17.40;;;8.27;;
53961;SDS011;39868;53.398;6.564;2022-11-15T02:37:46;18.92;;;8.40;;
53961;SDS011;39868;53.398;6.564;2022-11-15T02:40:45;15.35;;;8.77;;
53961;SDS011;39868;53.398;6.564;2022-11-15T02:49:57;17.43;;;8.53;;
53961;SDS011;39868;53.398;6.564;2022-11-15T02:52:50;15.93;;;8.80;;
53961;SDS011;39868;53.398;6.564;2022-11-15T03:04:53;18.65;;;8.75;;
53961;SDS011;39868;53.398;6.564;2022-11-15T03:07:54;20.40;;;9.27;;
53961;SDS011;39868;53.398;6.564;2022-11-15T03:10:51;16.33;;;8.55;;
53961;SDS011;39868;53.398;6.564;2022-11-15T03:16:41;17.77;;;9.20;;
53961;SDS011;39868;53.398;6.564;2022-11-15T03:19:34;14.85;;;8.25;;
53961;SDS011;39868;53.398;6.564;2022-11-15T03:22:33;16.13;;;8.00;;
53961;SDS011;39868;53.398;6.564;2022-11-15T03:25:25;15.38;;;8.18;;
53961;SDS011;39868;53.398;6.564;2022-11-15T03:28:14;16.05;;;8.60;;
53961;SDS011;39868;53.398;6.564;2022-11-15T03:31:07;14.52;;;8.05;;
53961;SDS011;39868;53.398;6.564;2022-11-15T03:34:29;14.32;;;7.30;;
53961;SDS011;39868;53.398;6.564;2022-11-15T03:37:36;18.23;;;8.35;;
53961;SDS011;39868;53.398;6.564;2022-11-15T03:40:27;16.73;;;8.02;;
53961;SDS011;39868;53.398;6.564;2022-11-15T03:46:26;16.05;;;7.70;;
53961;SDS011;39868;53.398;6.564;2022-11-15T03:49:25;13.65;;;7.22;;
53961;SDS011;39868;53.398;6.564;2022-11-15T03:52:20;14.73;;;7.03;;
53961;SDS011;39868;53.398;6.564;2022-11-15T03:55:08;15.70;;;7.80;;
53961;SDS011;39868;53.398;6.564;2022-11-15T03:57:57;15.18;;;7.28;;
53961;SDS011;39868;53.398;6.564;2022-11-15T04:00:45;18.92;;;8.10;;
53961;SDS011;39868;53.398;6.564;2022-11-15T04:03:31;17.95;;;7.95;;
53961;SDS011;39868;53.398;6.564;2022-11-15T04:06:18;17.13;;;8.27;;
53961;SDS011;39868;53.398;6.564;2022-11-15T04:09:04;20.45;;;8.00;;
53961;SDS011;39868;53.398;6.564;2022-11-15T04:11:50;17.85;;;7.40;;
53961;SDS011;39868;53.398;6.564;2022-11-15T04:14:36;15.88;;;7.38;;
53961;SDS011;39868;53.398;6.564;2022-11-15T04:17:22;16.55;;;7.95;;
53961;SDS011;39868;53.398;6.564;2022-11-15T04:20:18;19.23;;;7.90;;
53961;SDS011;39868;53.398;6.564;2022-11-15T04:23:23;14.70;;;8.00;;
53961;SDS011;39868;53.398;6.564;2022-11-15T04:26:27;16.83;;;8.13;;
53961;SDS011;39868;53.398;6.564;2022-11-15T04:29:13;18.08;;;7.95;;
53961;SDS011;39868;53.398;6.564;2022-11-15T04:32:18;17.67;;;6.93;;
53961;SDS011;39868;53.398;6.564;2022-11-15T04:35:04;17.70;;;8.18;;
53961;SDS011;39868;53.398;6.564;2022-11-15T04:37:50;17.13;;;8.35;;
53961;SDS011;39868;53.398;6.564;2022-11-15T04:40:37;16.90;;;7.95;;
53961;SDS011;39868;53.398;6.564;2022-11-15T04:43:23;18.40;;;7.75;;
53961;SDS011;39868;53.398;6.564;2022-11-15T04:46:09;18.00;;;6.85;;
53961;SDS011;39868;53.398;6.564;2022-11-15T04:48:55;16.67;;;7.13;;
53961;SDS011;39868;53.398;6.564;2022-11-15T04:51:43;15.95;;;6.88;;
53961;SDS011;39868;53.398;6.564;2022-11-15T04:54:30;19.08;;;7.90;;
53961;SDS011;39868;53.398;6.564;2022-11-15T04:57:16;15.52;;;7.38;;
53961;SDS011;39868;53.398;6.564;2022-11-15T05:00:06;16.65;;;7.65;;
53961;SDS011;39868;53.398;6.564;2022-11-15T05:02:54;16.15;;;7.47;;
53961;SDS011;39868;53.398;6.564;2022-11-15T05:05:59;15.80;;;7.10;;
53961;SDS011;39868;53.398;6.564;2022-11-15T05:08:45;14.70;;;7.40;;
53961;SDS011;39868;53.398;6.564;2022-11-15T05:11:31;20.77;;;8.00;;
53961;SDS011;39868;53.398;6.564;2022-11-15T05:14:17;15.68;;;7.38;;
53961;SDS011;39868;53.398;6.564;2022-11-15T05:17:03;18.30;;;7.15;;
53961;SDS011;39868;53.398;6.564;2022-11-15T05:19:49;16.67;;;7.47;;
53961;SDS011;39868;53.398;6.564;2022-11-15T05:22:37;15.63;;;7.88;;
53961;SDS011;39868;53.398;6.564;2022-11-15T05:25:23;14.63;;;7.30;;
53961;SDS011;39868;53.398;6.564;2022-11-15T05:28:10;15.77;;;7.13;;
53961;SDS011;39868;53.398;6.564;2022-11-15T05:31:10;15.30;;;7.45;;
53961;SDS011;39868;53.398;6.564;2022-11-15T05:34:04;19.63;;;7.63;;
53961;SDS011;39868;53.398;6.564;2022-11-15T05:36:51;17.48;;;7.20;;
53961;SDS011;39868;53.398;6.564;2022-11-15T05:39:37;18.58;;;8.23;;
53961;SDS011;39868;53.398;6.564;2022-11-15T05:42:23;15.52;;;8.00;;
53961;SDS011;39868;53.398;6.564;2022-11-15T05:45:11;19.83;;;8.00;;
53961;SDS011;39868;53.398;6.564;2022-11-15T05:47:58;20.65;;;8.32;;
53961;SDS011;39868;53.398;6.564;2022-11-15T05:50:46;17.75;;;7.95;;
53961;SDS011;39868;53.398;6.564;2022-11-15T05:53:32;18.35;;;8.10;;
53961;SDS011;39868;53.398;6.564;2022-11-15T05:56:20;17.00;;;8.20;;
53961;SDS011;39868;53.398;6.564;2022-11-15T05:59:07;16.50;;;7.97;;
53961;SDS011;39868;53.398;6.564;2022-11-15T06:01:54;15.18;;;8.13;;
53961;SDS011;39868;53.398;6.564;2022-11-15T06:04:40;17.92;;;8.38;;
53961;SDS011;39868;53.398;6.564;2022-11-15T06:07:28;21.67;;;9.13;;
53961;SDS011;39868;53.398;6.564;2022-11-15T06:10:15;22.30;;;8.77;;
53961;SDS011;39868;53.398;6.564;2022-11-15T06:13:02;18.13;;;7.65;;
53961;SDS011;39868;53.398;6.564;2022-11-15T06:15:50;19.73;;;8.27;;
53961;SDS011;39868;53.398;6.564;2022-11-15T06:18:36;18.70;;;8.68;;
53961;SDS011;39868;53.398;6.564;2022-11-15T06:21:22;21.42;;;8.35;;
53961;SDS011;39868;53.398;6.564;2022-11-15T06:24:09;18.40;;;8.60;;
53961;SDS011;39868;53.398;6.564;2022-11-15T06:26:55;20.35;;;8.07;;
53961;SDS011;39868;53.398;6.564;2022-11-15T06:29:41;21.65;;;9.40;;
53961;SDS011;39868;53.398;6.564;2022-11-15T06:32:28;21.48;;;9.30;;
53961;SDS011;39868;53.398;6.564;2022-11-15T06:35:15;20.17;;;8.90;;
53961;SDS011;39868;53.398;6.564;2022-11-15T06:38:03;23.10;;;9.48;;
53961;SDS011;39868;53.398;6.564;2022-11-15T06:40:54;20.52;;;8.68;;
53961;SDS011;39868;53.398;6.564;2022-11-15T06:43:41;20.20;;;8.95;;
53961;SDS011;39868;53.398;6.564;2022-11-15T06:46:27;20.25;;;9.07;;
53961;SDS011;39868;53.398;6.564;2022-11-15T06:49:13;24.10;;;10.43;;
53961;SDS011;39868;53.398;6.564;2022-11-15T06:51:59;19.05;;;9.25;;
53961;SDS011;39868;53.398;6.564;2022-11-15T06:54:45;20.95;;;10.18;;
53961;SDS011;39868;53.398;6.564;2022-11-15T06:57:32;22.98;;;9.35;;
53961;SDS011;39868;53.398;6.564;2022-11-15T07:00:20;23.92;;;9.63;;
53961;SDS011;39868;53.398;6.564;2022-11-15T07:03:07;18.77;;;9.00;;
53961;SDS011;39868;53.398;6.564;2022-11-15T07:05:54;20.20;;;9.52;;
53961;SDS011;39868;53.398;6.564;2022-11-15T07:08:49;23.63;;;9.85;;
53961;SDS011;39868;53.398;6.564;2022-11-15T07:11:35;20.52;;;9.60;;
53961;SDS011;39868;53.398;6.564;2022-11-15T07:14:21;21.08;;;9.15;;
53961;SDS011;39868;53.398;6.564;2022-11-15T07:17:07;17.35;;;9.85;;
53961;SDS011;39868;53.398;6.564;2022-11-15T07:19:53;25.30;;;10.38;;
53961;SDS011;39868;53.398;6.564;2022-11-15T07:22:42;22.30;;;9.90;;
53961;SDS011;39868;53.398;6.564;2022-11-15T07:25:30;23.35;;;9.60;;
53961;SDS011;39868;53.398;6.564;2022-11-15T07:28:16;23.00;;;10.23;;
53961;SDS011;39868;53.398;6.564;2022-11-15T07:31:06;22.38;;;9.75;;
53961;SDS011;39868;53.398;6.564;2022-11-15T07:33:53;24.63;;;9.57;;
53961;SDS011;39868;53.398;6.564;2022-11-15T07:36:40;19.42;;;9.20;;
53961;SDS011;39868;53.398;6.564;2022-11-15T07:39:26;18.25;;;8.90;;
53961;SDS011;39868;53.398;6.564;2022-11-15T07:42:12;19.88;;;9.35;;
53961;SDS011;39868;53.398;6.564;2022-11-15T07:45:16;21.98;;;9.63;;
53961;SDS011;39868;53.398;6.564;2022-11-15T07:48:03;20.17;;;10.40;;
53961;SDS011;39868;53.398;6.564;2022-11-15T07:50:49;19.08;;;9.75;;
53961;SDS011;39868;53.398;6.564;2022-11-15T07:53:35;23.08;;;9.50;;
53961;SDS011;39868;53.398;6.564;2022-11-15T07:56:21;19.75;;;9.95;;
53961;SDS011;39868;53.398;6.564;2022-11-15T07:59:07;19.42;;;10.02;;
53961;SDS011;39868;53.398;6.564;2022-11-15T08:01:53;21.40;;;9.60;;
53961;SDS011;39868;53.398;6.564;2022-11-15T08:04:39;24.85;;;10.50;;
53961;SDS011;39868;53.398;6.564;2022-11-15T08:07:27;19.73;;;9.30;;
53961;SDS011;39868;53.398;6.564;2022-11-15T08:10:15;22.20;;;9.98;;
53961;SDS011;39868;53.398;6.564;2022-11-15T08:13:05;16.17;;;8.73;;
53961;SDS011;39868;53.398;6.564;2022-11-15T08:16:02;23.50;;;9.65;;
53961;SDS011;39868;53.398;6.564;2022-11-15T08:18:50;21.25;;;9.73;;
53961;SDS011;39868;53.398;6.564;2022-11-15T08:21:37;15.65;;;8.73;;
53961;SDS011;39868;53.398;6.564;2022-11-15T08:24:23;21.85;;;9.98;;
53961;SDS011;39868;53.398;6.564;2022-11-15T08:27:08;18.35;;;9.73;;
53961;SDS011;39868;53.398;6.564;2022-11-15T08:30:00;19.08;;;10.05;;
53961;SDS011;39868;53.398;6.564;2022-11-15T08:32:47;16.85;;;10.52;;
53961;SDS011;39868;53.398;6.564;2022-11-15T08:35:34;23.73;;;10.35;;
53961;SDS011;39868;53.398;6.564;2022-11-15T08:38:20;19.48;;;9.85;;
53961;SDS011;39868;53.398;6.564;2022-11-15T08:41:06;20.33;;;10.68;;
53961;SDS011;39868;53.398;6.564;2022-11-15T08:43:57;18.35;;;9.75;;
53961;SDS011;39868;53.398;6.564;2022-11-15T08:46:45;19.15;;;9.52;;
53961;SDS011;39868;53.398;6.564;2022-11-15T08:49:32;19.08;;;9.30;;
53961;SDS011;39868;53.398;6.564;2022-11-15T08:52:18;19.00;;;9.70;;
53961;SDS011;39868;53.398;6.564;2022-11-15T08:55:04;16.60;;;9.30;;
53961;SDS011;39868;53.398;6.564;2022-11-15T08:57:51;17.52;;;9.27;;
53961;SDS011;39868;53.398;6.564;2022-11-15T09:00:37;15.45;;;9.02;;
53961;SDS011;39868;53.398;6.564;2022-11-15T09:03:24;18.95;;;9.63;;
53961;SDS011;39868;53.398;6.564;2022-11-15T09:06:10;18.25;;;9.32;;
53961;SDS011;39868;53.398;6.564;2022-11-15T09:08:57;16.15;;;8.63;;
53961;SDS011;39868;53.398;6.564;2022-11-15T09:11:43;17.85;;;8.88;;
53961;SDS011;39868;53.398;6.564;2022-11-15T09:14:29;19.27;;;9.52;;
53961;SDS011;39868;53.398;6.564;2022-11-15T09:17:15;18.55;;;9.48;;
53961;SDS011;39868;53.398;6.564;2022-11-15T09:20:08;16.80;;;9.07;;
53961;SDS011;39868;53.398;6.564;2022-11-15T09:22:54;14.77;;;8.93;;
53961;SDS011;39868;53.398;6.564;2022-11-15T09:25:43;16.58;;;8.80;;
53961;SDS011;39868;53.398;6.564;2022-11-15T09:28:29;15.70;;;8.63;;
53961;SDS011;39868;53.398;6.564;2022-11-15T09:31:16;14.77;;;8.38;;
53961;SDS011;39868;53.398;6.564;2022-11-15T09:34:06;18.80;;;9.02;;
53961;SDS011;39868;53.398;6.564;2022-11-15T09:36:52;14.07;;;8.27;;
53961;SDS011;39868;53.398;6.564;2022-11-15T09:39:38;16.35;;;8.15;;
53961;SDS011;39868;53.398;6.564;2022-11-15T09:45:50;14.18;;;7.75;;
53961;SDS011;39868;53.398;6.564;2022-11-15T09:51:41;14.23;;;8.40;;
53961;SDS011;39868;53.398;6.564;2022-11-15T09:57:31;13.02;;;8.45;;
53961;SDS011;39868;53.398;6.564;2022-11-15T10:03:13;11.20;;;7.45;;
53961;SDS011;39868;53.398;6.564;2022-11-15T10:05:47;12.57;;;7.05;;
53961;SDS011;39868;53.398;6.564;2022-11-15T10:11:05;12.43;;;7.43;;
53961;SDS011;39868;53.398;6.564;2022-11-15T10:13:57;12.90;;;7.77;;
53961;SDS011;39868;53.398;6.564;2022-11-15T10:19:34;12.13;;;7.47;;
53961;SDS011;39868;53.398;6.564;2022-11-15T10:22:12;12.75;;;7.65;;
53961;SDS011;39868;53.398;6.564;2022-11-15T10:24:49;12.40;;;7.43;;
53961;SDS011;39868;53.398;6.564;2022-11-15T10:27:19;12.20;;;7.88;;
53961;SDS011;39868;53.398;6.564;2022-11-15T10:29:47;12.25;;;7.70;;
53961;SDS011;39868;53.398;6.564;2022-11-15T10:32:18;14.85;;;8.13;;
53961;SDS011;39868;53.398;6.564;2022-11-15T10:34:47;13.07;;;8.38;;
53961;SDS011;39868;53.398;6.564;2022-11-15T10:37:24;14.63;;;8.25;;
53961;SDS011;39868;53.398;6.564;2022-11-15T10:40:03;13.20;;;7.93;;
53961;SDS011;39868;53.398;6.564;2022-11-15T10:42:33;16.20;;;8.85;;
53961;SDS011;39868;53.398;6.564;2022-11-15T10:45:01;13.75;;;8.10;;
53961;SDS011;39868;53.398;6.564;2022-11-15T10:47:29;12.32;;;7.07;;
53961;SDS011;39868;53.398;6.564;2022-11-15T10:50:06;12.43;;;7.40;;
53961;SDS011;39868;53.398;6.564;2022-11-15T10:52:53;14.35;;;7.93;;
53961;SDS011;39868;53.398;6.564;2022-11-15T10:55:22;12.02;;;7.78;;
53961;SDS011;39868;53.398;6.564;2022-11-15T10:57:54;12.43;;;7.35;;
53961;SDS011;39868;53.398;6.564;2022-11-15T11:00:35;9.98;;;7.32;;
53961;SDS011;39868;53.398;6.564;2022-11-15T11:03:28;10.90;;;7.68;;
53961;SDS011;39868;53.398;6.564;2022-11-15T11:06:09;10.93;;;7.68;;
53961;SDS011;39868;53.398;6.564;2022-11-15T11:08:59;13.05;;;8.00;;
53961;SDS011;39868;53.398;6.564;2022-11-15T11:11:47;13.18;;;8.00;;
53961;SDS011;39868;53.398;6.564;2022-11-15T11:14:23;11.70;;;7.88;;
53961;SDS011;39868;53.398;6.564;2022-11-15T11:16:54;11.98;;;7.25;;
53961;SDS011;39868;53.398;6.564;2022-11-15T11:19:34;11.40;;;7.20;;
53961;SDS011;39868;53.398;6.564;2022-11-15T11:42:00;11.45;;;6.70;;
53961;SDS011;39868;53.398;6.564;2022-11-15T11:44:56;10.23;;;6.40;;
53961;SDS011;39868;53.398;6.564;2022-11-15T11:47:39;9.07;;;6.38;;
53961;SDS011;39868;53.398;6.564;2022-11-15T11:50:11;9.88;;;6.93;;
53961;SDS011;39868;53.398;6.564;2022-11-15T11:52:43;10.38;;;6.90;;
53961;SDS011;39868;53.398;6.564;2022-11-15T12:00:31;12.85;;;7.13;;
53961;SDS011;39868;53.398;6.564;2022-11-15T12:03:04;14.23;;;6.43;;
53961;SDS011;39868;53.398;6.564;2022-11-15T12:05:46;10.25;;;6.32;;
53961;SDS011;39868;53.398;6.564;2022-11-15T12:08:31;11.73;;;6.97;;
53961;SDS011;39868;53.398;6.564;2022-11-15T12:11:23;12.23;;;7.07;;
53961;SDS011;39868;53.398;6.564;2022-11-15T12:14:00;12.20;;;7.45;;
53961;SDS011;39868;53.398;6.564;2022-11-15T12:16:31;11.48;;;7.82;;
53961;SDS011;39868;53.398;6.564;2022-11-15T12:19:00;11.55;;;7.45;;
53961;SDS011;39868;53.398;6.564;2022-11-15T12:24:37;11.75;;;6.32;;
53961;SDS011;39868;53.398;6.564;2022-11-15T12:30:19;10.43;;;6.03;;
53961;SDS011;39868;53.398;6.564;2022-11-15T12:32:57;9.93;;;6.38;;
53961;SDS011;39868;53.398;6.564;2022-11-15T12:35:30;7.10;;;5.38;;
53961;SDS011;39868;53.398;6.564;2022-11-15T12:38:12;9.43;;;5.65;;
53961;SDS011;39868;53.398;6.564;2022-11-15T12:41:17;7.85;;;5.40;;
53961;SDS011;39868;53.398;6.564;2022-11-15T12:43:46;7.35;;;5.65;;
53961;SDS011;39868;53.398;6.564;2022-11-15T13:02:33;8.85;;;5.05;;
53961;SDS011;39868;53.398;6.564;2022-11-15T13:28:27;6.53;;;4.07;;
53961;SDS011;39868;53.398;6.564;2022-11-15T13:31:13;4.97;;;3.90;;
53961;SDS011;39868;53.398;6.564;2022-11-15T13:33:50;4.28;;;3.30;;
53961;SDS011;39868;53.398;6.564;2022-11-15T13:38:59;5.30;;;3.20;;
53961;SDS011;39868;53.398;6.564;2022-11-15T13:41:35;5.38;;;3.45;;
53961;SDS011;39868;53.398;6.564;2022-11-15T13:44:18;5.38;;;3.80;;
53961;SDS011;39868;53.398;6.564;2022-11-15T13:47:04;7.05;;;3.47;;
53961;SDS011;39868;53.398;6.564;2022-11-15T13:52:02;3.10;;;2.80;;
53961;SDS011;39868;53.398;6.564;2022-11-15T13:59:56;4.40;;;3.13;;
53961;SDS011;39868;53.398;6.564;2022-11-15T14:02:39;5.28;;;3.40;;
53961;SDS011;39868;53.398;6.564;2022-11-15T14:05:15;4.70;;;3.05;;
53961;SDS011;39868;53.398;6.564;2022-11-15T14:07:59;5.28;;;3.50;;
53961;SDS011;39868;53.398;6.564;2022-11-15T14:10:39;5.32;;;2.88;;
53961;SDS011;39868;53.398;6.564;2022-11-15T14:13:26;6.53;;;3.60;;
53961;SDS011;39868;53.398;6.564;2022-11-15T14:19:02;4.43;;;3.08;;
53961;SDS011;39868;53.398;6.564;2022-11-15T14:21:31;4.60;;;3.05;;
53961;SDS011;39868;53.398;6.564;2022-11-15T14:24:21;6.22;;;3.28;;
53961;SDS011;39868;53.398;6.564;2022-11-15T14:26:48;4.60;;;2.88;;
53961;SDS011;39868;53.398;6.564;2022-11-15T14:29:25;3.58;;;2.72;;
53961;SDS011;39868;53.398;6.564;2022-11-15T14:32:05;4.00;;;3.05;;
53961;SDS011;39868;53.398;6.564;2022-11-15T14:35:01;5.75;;;3.05;;
53961;SDS011;39868;53.398;6.564;2022-11-15T14:37:33;4.70;;;3.17;;
53961;SDS011;39868;53.398;6.564;2022-11-15T14:40:02;4.65;;;2.60;;
53961;SDS011;39868;53.398;6.564;2022-11-15T14:42:31;4.78;;;3.15;;
53961;SDS011;39868;53.398;6.564;2022-11-15T14:44:59;3.88;;;3.15;;
53961;SDS011;39868;53.398;6.564;2022-11-15T14:47:27;4.47;;;3.50;;
53961;SDS011;39868;53.398;6.564;2022-11-15T14:49:54;3.85;;;3.22;;
53961;SDS011;39868;53.398;6.564;2022-11-15T14:52:31;6.50;;;3.22;;
53961;SDS011;39868;53.398;6.564;2022-11-15T14:55:04;6.43;;;4.13;;
53961;SDS011;39868;53.398;6.564;2022-11-15T14:58:03;4.13;;;3.20;;
53961;SDS011;39868;53.398;6.564;2022-11-15T15:00:35;4.65;;;3.08;;
53961;SDS011;39868;53.398;6.564;2022-11-15T15:03:06;4.25;;;3.10;;
53961;SDS011;39868;53.398;6.564;2022-11-15T15:08:06;5.35;;;3.10;;
53961;SDS011;39868;53.398;6.564;2022-11-15T15:10:35;5.75;;;2.83;;
53961;SDS011;39868;53.398;6.564;2022-11-15T15:13:14;3.45;;;3.00;;
53961;SDS011;39868;53.398;6.564;2022-11-15T15:15:47;5.32;;;3.08;;
53961;SDS011;39868;53.398;6.564;2022-11-15T15:18:16;3.17;;;2.75;;
53961;SDS011;39868;53.398;6.564;2022-11-15T15:20:47;4.03;;;2.75;;
53961;SDS011;39868;53.398;6.564;2022-11-15T15:23:29;3.47;;;2.70;;
53961;SDS011;39868;53.398;6.564;2022-11-15T15:25:58;3.30;;;2.42;;
53961;SDS011;39868;53.398;6.564;2022-11-15T15:28:26;3.35;;;2.80;;
53961;SDS011;39868;53.398;6.564;2022-11-15T15:31:00;3.00;;;2.67;;
53961;SDS011;39868;53.398;6.564;2022-11-15T15:33:28;3.70;;;2.95;;
53961;SDS011;39868;53.398;6.564;2022-11-15T15:35:56;4.50;;;2.70;;
53961;SDS011;39868;53.398;6.564;2022-11-15T15:38:23;3.10;;;2.60;;
53961;SDS011;39868;53.398;6.564;2022-11-15T15:40:51;3.47;;;2.60;;
53961;SDS011;39868;53.398;6.564;2022-11-15T15:43:18;3.08;;;2.78;;
53961;SDS011;39868;53.398;6.564;2022-11-15T15:45:46;4.55;;;2.78;;
53961;SDS011;39868;53.398;6.564;2022-11-15T15:48:14;3.28;;;2.97;;
53961;SDS011;39868;53.398;6.564;2022-11-15T15:50:43;3.95;;;3.03;;
53961;SDS011;39868;53.398;6.564;2022-11-15T15:53:12;4.82;;;2.90;;
53961;SDS011;39868;53.398;6.564;2022-11-15T15:55:40;6.93;;;3.33;;
53961;SDS011;39868;53.398;6.564;2022-11-15T15:58:08;4.80;;;3.00;;
53961;SDS011;39868;53.398;6.564;2022-11-15T16:00:35;3.97;;;3.00;;
53961;SDS011;39868;53.398;6.564;2022-11-15T16:03:04;3.17;;;2.75;;
53961;SDS011;39868;53.398;6.564;2022-11-15T16:05:32;3.00;;;2.75;;
53961;SDS011;39868;53.398;6.564;2022-11-15T16:08:00;4.13;;;3.13;;
53961;SDS011;39868;53.398;6.564;2022-11-15T16:10:28;5.78;;;2.80;;
53961;SDS011;39868;53.398;6.564;2022-11-15T16:12:58;3.90;;;2.80;;
53961;SDS011;39868;53.398;6.564;2022-11-15T16:15:26;4.13;;;2.78;;
53961;SDS011;39868;53.398;6.564;2022-11-15T16:17:57;3.58;;;3.00;;
53961;SDS011;39868;53.398;6.564;2022-11-15T16:20:33;4.30;;;2.85;;
53961;SDS011;39868;53.398;6.564;2022-11-15T16:23:07;2.97;;;2.70;;
53961;SDS011;39868;53.398;6.564;2022-11-15T16:28:21;4.20;;;3.08;;
53961;SDS011;39868;53.398;6.564;2022-11-15T16:31:00;3.67;;;3.10;;
53961;SDS011;39868;53.398;6.564;2022-11-15T16:33:28;2.92;;;2.60;;
53961;SDS011;39868;53.398;6.564;2022-11-15T16:35:56;3.97;;;3.17;;
53961;SDS011;39868;53.398;6.564;2022-11-15T16:38:23;4.15;;;3.15;;
53961;SDS011;39868;53.398;6.564;2022-11-15T16:40:51;3.67;;;2.85;;
53961;SDS011;39868;53.398;6.564;2022-11-15T16:43:18;3.25;;;2.95;;
53961;SDS011;39868;53.398;6.564;2022-11-15T16:45:46;3.85;;;3.40;;
53961;SDS011;39868;53.398;6.564;2022-11-15T16:48:32;4.22;;;3.22;;
53961;SDS011;39868;53.398;6.564;2022-11-15T16:51:01;4.93;;;3.30;;
53961;SDS011;39868;53.398;6.564;2022-11-15T16:53:30;4.38;;;2.85;;
53961;SDS011;39868;53.398;6.564;2022-11-15T16:55:58;3.20;;;2.80;;
53961;SDS011;39868;53.398;6.564;2022-11-15T16:58:25;3.40;;;3.10;;
53961;SDS011;39868;53.398;6.564;2022-11-15T17:00:53;3.78;;;3.38;;
53961;SDS011;39868;53.398;6.564;2022-11-15T17:03:22;3.97;;;3.05;;
53961;SDS011;39868;53.398;6.564;2022-11-15T17:05:50;3.35;;;3.00;;
53961;SDS011;39868;53.398;6.564;2022-11-15T17:08:18;4.05;;;3.40;;
53961;SDS011;39868;53.398;6.564;2022-11-15T17:10:47;4.13;;;3.30;;
53961;SDS011;39868;53.398;6.564;2022-11-15T17:13:15;6.63;;;3.25;;
53961;SDS011;39868;53.398;6.564;2022-11-15T17:15:42;3.80;;;3.33;;
53961;SDS011;39868;53.398;6.564;2022-11-15T17:18:10;3.40;;;3.08;;
53961;SDS011;39868;53.398;6.564;2022-11-15T17:20:39;5.28;;;3.33;;
53961;SDS011;39868;53.398;6.564;2022-11-15T17:23:16;3.80;;;3.40;;
53961;SDS011;39868;53.398;6.564;2022-11-15T17:25:44;5.20;;;3.15;;
53961;SDS011;39868;53.398;6.564;2022-11-15T17:28:11;3.55;;;3.22;;
53961;SDS011;39868;53.398;6.564;2022-11-15T17:30:42;3.55;;;3.25;;
53961;SDS011;39868;53.398;6.564;2022-11-15T17:33:09;3.53;;;3.22;;
53961;SDS011;39868;53.398;6.564;2022-11-15T17:35:37;4.32;;;3.10;;
53961;SDS011;39868;53.398;6.564;2022-11-15T17:38:04;3.70;;;3.08;;
53961;SDS011;39868;53.398;6.564;2022-11-15T17:40:32;3.20;;;2.88;;
53961;SDS011;39868;53.398;6.564;2022-11-15T17:42:59;4.72;;;3.10;;
53961;SDS011;39868;53.398;6.564;2022-11-15T17:45:27;3.53;;;3.22;;
53961;SDS011;39868;53.398;6.564;2022-11-15T17:47:54;3.83;;;3.33;;
53961;SDS011;39868;53.398;6.564;2022-11-15T17:50:22;3.28;;;3.00;;
53961;SDS011;39868;53.398;6.564;2022-11-15T17:52:49;3.30;;;3.00;;
53961;SDS011;39868;53.398;6.564;2022-11-15T17:55:17;3.40;;;3.10;;
53961;SDS011;39868;53.398;6.564;2022-11-15T17:57:44;3.42;;;3.13;;
53961;SDS011;39868;53.398;6.564;2022-11-15T18:00:12;4.40;;;3.15;;
53961;SDS011;39868;53.398;6.564;2022-11-15T18:02:40;3.97;;;3.08;;
53961;SDS011;39868;53.398;6.564;2022-11-15T18:05:08;3.70;;;3.40;;
53961;SDS011;39868;53.398;6.564;2022-11-15T18:07:35;4.43;;;3.58;;
53961;SDS011;39868;53.398;6.564;2022-11-15T18:10:03;3.35;;;3.05;;
53961;SDS011;39868;53.398;6.564;2022-11-15T18:12:31;3.58;;;3.28;;
53961;SDS011;39868;53.398;6.564;2022-11-15T18:14:58;3.65;;;3.35;;
53961;SDS011;39868;53.398;6.564;2022-11-15T18:17:26;3.38;;;3.05;;
53961;SDS011;39868;53.398;6.564;2022-11-15T18:19:54;4.18;;;3.13;;
53961;SDS011;39868;53.398;6.564;2022-11-15T18:22:22;5.43;;;3.15;;
53961;SDS011;39868;53.398;6.564;2022-11-15T18:24:50;3.50;;;3.00;;
53961;SDS011;39868;53.398;6.564;2022-11-15T18:27:18;4.13;;;3.33;;
53961;SDS011;39868;53.398;6.564;2022-11-15T18:29:46;4.63;;;3.20;;